sensor_id;sensor_type;location;lat;lon;timestamp;pressure;altitude;pressure_sealevel;temperature;humidity
34237;BME280;20501;45.956;13.632;2023-04-06T00:00:13;100962.50;;;10.33;41.64
34237;BME280;20501;45.956;13.632;2023-04-06T00:02:39;100963.06;;;11.53;38.84
34237;BME280;20501;45.956;13.632;2023-04-06T00:05:05;100963.00;;;11.33;37.49
34237;BME280;20501;45.956;13.632;2023-04-06T00:07:31;100957.91;;;11.90;37.93
34237;BME280;20501;45.956;13.632;2023-04-06T00:09:58;100964.00;;;11.32;40.09
34237;BME280;20501;45.956;13.632;2023-04-06T00:12:24;100958.00;;;11.28;40.12
34237;BME280;20501;45.956;13.632;2023-04-06T00:14:49;100953.59;;;8.98;43.47
34237;BME280;20501;45.956;13.632;2023-04-06T00:17:15;100945.81;;;11.13;40.54
34237;BME280;20501;45.956;13.632;2023-04-06T00:19:40;100951.06;;;9.31;42.94
34237;BME280;20501;45.956;13.632;2023-04-06T00:22:06;100941.59;;;8.08;39.52
34237;BME280;20501;45.956;13.632;2023-04-06T00:24:32;100945.50;;;9.78;42.84
34237;BME280;20501;45.956;13.632;2023-04-06T00:26:57;100938.06;;;7.70;43.07
34237;BME280;20501;45.956;13.632;2023-04-06T00:29:22;100949.34;;;9.07;40.05
34237;BME280;20501;45.956;13.632;2023-04-06T00:31:48;100946.69;;;8.60;41.80
34237;BME280;20501;45.956;13.632;2023-04-06T00:34:13;100946.94;;;10.79;40.98
34237;BME280;20501;45.956;13.632;2023-04-06T00:36:41;100941.53;;;7.97;40.99
34237;BME280;20501;45.956;13.632;2023-04-06T00:39:06;100953.41;;;10.34;42.12
34237;BME280;20501;45.956;13.632;2023-04-06T00:41:31;100951.38;;;11.42;39.18
34237;BME280;20501;45.956;13.632;2023-04-06T00:43:57;100940.06;;;11.68;39.05
34237;BME280;20501;45.956;13.632;2023-04-06T00:46:23;100951.56;;;11.20;39.57
34237;BME280;20501;45.956;13.632;2023-04-06T00:48:48;100946.44;;;10.20;42.11
34237;BME280;20501;45.956;13.632;2023-04-06T00:51:14;100951.41;;;11.52;38.79
34237;BME280;20501;45.956;13.632;2023-04-06T00:53:39;100948.41;;;10.30;41.80
34237;BME280;20501;45.956;13.632;2023-04-06T00:56:05;100950.53;;;11.11;40.21
34237;BME280;20501;45.956;13.632;2023-04-06T00:58:31;100942.94;;;11.36;39.07
34237;BME280;20501;45.956;13.632;2023-04-06T01:00:57;100939.38;;;8.13;45.49
34237;BME280;20501;45.956;13.632;2023-04-06T01:03:23;100937.69;;;10.82;41.19
34237;BME280;20501;45.956;13.632;2023-04-06T01:05:48;100939.91;;;11.70;39.34
34237;BME280;20501;45.956;13.632;2023-04-06T01:08:14;100936.91;;;9.72;37.89
34237;BME280;20501;45.956;13.632;2023-04-06T01:10:39;100938.84;;;7.97;47.94
34237;BME280;20501;45.956;13.632;2023-04-06T01:13:05;100936.41;;;8.65;43.31
34237;BME280;20501;45.956;13.632;2023-04-06T01:15:32;100938.75;;;7.61;43.57
34237;BME280;20501;45.956;13.632;2023-04-06T01:17:58;100931.59;;;5.78;49.32
34237;BME280;20501;45.956;13.632;2023-04-06T01:20:24;100936.84;;;9.95;43.26
34237;BME280;20501;45.956;13.632;2023-04-06T01:22:49;100932.66;;;8.79;40.50
34237;BME280;20501;45.956;13.632;2023-04-06T01:25:15;100942.03;;;4.83;47.79
34237;BME280;20501;45.956;13.632;2023-04-06T01:27:40;100936.91;;;7.11;48.41
34237;BME280;20501;45.956;13.632;2023-04-06T01:30:06;100936.34;;;10.01;43.02
34237;BME280;20501;45.956;13.632;2023-04-06T01:32:32;100938.84;;;6.96;43.45
34237;BME280;20501;45.956;13.632;2023-04-06T01:34:58;100944.03;;;5.22;47.93
34237;BME280;20501;45.956;13.632;2023-04-06T01:37:23;100947.13;;;7.06;48.55
34237;BME280;20501;45.956;13.632;2023-04-06T01:39:49;100939.56;;;9.84;43.13
34237;BME280;20501;45.956;13.632;2023-04-06T01:42:15;100938.31;;;9.55;43.60
34237;BME280;20501;45.956;13.632;2023-04-06T01:44:40;100941.72;;;11.19;40.02
34237;BME280;20501;45.956;13.632;2023-04-06T01:47:06;100937.22;;;11.29;39.83
34237;BME280;20501;45.956;13.632;2023-04-06T01:49:31;100934.38;;;11.71;39.07
34237;BME280;20501;45.956;13.632;2023-04-06T01:51:56;100926.72;;;11.86;38.54
34237;BME280;20501;45.956;13.632;2023-04-06T01:54:22;100927.25;;;11.70;39.36
34237;BME280;20501;45.956;13.632;2023-04-06T01:56:47;100933.16;;;11.44;39.32
34237;BME280;20501;45.956;13.632;2023-04-06T01:59:15;100928.41;;;11.77;39.12
34237;BME280;20501;45.956;13.632;2023-04-06T02:01:40;100925.78;;;8.39;45.17
34237;BME280;20501;45.956;13.632;2023-04-06T02:04:06;100941.09;;;8.86;45.33
34237;BME280;20501;45.956;13.632;2023-04-06T02:06:31;100930.63;;;10.91;40.92
34237;BME280;20501;45.956;13.632;2023-04-06T02:08:57;100924.00;;;9.87;42.96
34237;BME280;20501;45.956;13.632;2023-04-06T02:11:22;100922.00;;;10.33;39.51
34237;BME280;20501;45.956;13.632;2023-04-06T02:13:47;100923.22;;;11.55;39.92
34237;BME280;20501;45.956;13.632;2023-04-06T02:16:13;100923.56;;;11.81;39.09
34237;BME280;20501;45.956;13.632;2023-04-06T02:18:39;100919.19;;;9.24;43.62
34237;BME280;20501;45.956;13.632;2023-04-06T02:21:05;100926.44;;;10.23;41.44
34237;BME280;20501;45.956;13.632;2023-04-06T02:23:30;100917.28;;;10.89;39.90
34237;BME280;20501;45.956;13.632;2023-04-06T02:25:56;100925.34;;;11.61;39.58
34237;BME280;20501;45.956;13.632;2023-04-06T02:28:21;100929.34;;;7.30;43.57
34237;BME280;20501;45.956;13.632;2023-04-06T02:30:46;100928.00;;;7.48;47.63
34237;BME280;20501;45.956;13.632;2023-04-06T02:33:12;100920.03;;;10.03;43.33
34237;BME280;20501;45.956;13.632;2023-04-06T02:35:37;100915.63;;;9.58;39.08
34237;BME280;20501;45.956;13.632;2023-04-06T02:38:03;100916.34;;;10.04;43.28
34237;BME280;20501;45.956;13.632;2023-04-06T02:40:28;100912.34;;;10.52;42.22
34237;BME280;20501;45.956;13.632;2023-04-06T02:42:54;100912.34;;;8.39;41.99
34237;BME280;20501;45.956;13.632;2023-04-06T02:45:19;100904.88;;;7.08;44.93
34237;BME280;20501;45.956;13.632;2023-04-06T02:47:45;100912.50;;;8.49;42.36
34237;BME280;20501;45.956;13.632;2023-04-06T02:50:10;100906.03;;;8.51;45.20
34237;BME280;20501;45.956;13.632;2023-04-06T02:52:36;100918.44;;;6.94;45.08
34237;BME280;20501;45.956;13.632;2023-04-06T02:55:01;100906.44;;;9.15;41.27
34237;BME280;20501;45.956;13.632;2023-04-06T02:57:27;100910.97;;;7.36;44.62
34237;BME280;20501;45.956;13.632;2023-04-06T02:59:52;100911.66;;;8.48;41.93
34237;BME280;20501;45.956;13.632;2023-04-06T03:02:18;100913.25;;;10.62;42.11
34237;BME280;20501;45.956;13.632;2023-04-06T03:04:44;100916.09;;;11.44;39.96
34237;BME280;20501;45.956;13.632;2023-04-06T03:07:10;100913.41;;;11.64;39.62
34237;BME280;20501;45.956;13.632;2023-04-06T03:09:37;100912.44;;;11.74;39.41
34237;BME280;20501;45.956;13.632;2023-04-06T03:12:02;100911.03;;;11.80;39.37
34237;BME280;20501;45.956;13.632;2023-04-06T03:14:28;100904.28;;;9.75;38.72
34237;BME280;20501;45.956;13.632;2023-04-06T03:16:53;100914.84;;;7.94;47.53
34237;BME280;20501;45.956;13.632;2023-04-06T03:19:19;100913.44;;;5.12;49.43
34237;BME280;20501;45.956;13.632;2023-04-06T03:21:44;100913.66;;;5.78;50.19
34237;BME280;20501;45.956;13.632;2023-04-06T03:24:10;100918.59;;;7.67;44.70
34237;BME280;20501;45.956;13.632;2023-04-06T03:26:35;100921.78;;;7.48;46.61
34237;BME280;20501;45.956;13.632;2023-04-06T03:29:01;100917.44;;;10.34;42.66
34237;BME280;20501;45.956;13.632;2023-04-06T03:31:26;100917.03;;;10.17;40.02
34237;BME280;20501;45.956;13.632;2023-04-06T03:33:52;100911.75;;;7.63;47.44
34237;BME280;20501;45.956;13.632;2023-04-06T03:36:17;100922.00;;;9.45;42.10
34237;BME280;20501;45.956;13.632;2023-04-06T03:38:43;100929.34;;;7.30;45.16
34237;BME280;20501;45.956;13.632;2023-04-06T03:41:08;100924.13;;;9.86;43.83
34237;BME280;20501;45.956;13.632;2023-04-06T03:43:34;100925.09;;;10.92;41.20
34237;BME280;20501;45.956;13.632;2023-04-06T03:46:00;100925.22;;;9.17;45.08
34237;BME280;20501;45.956;13.632;2023-04-06T03:48:25;100925.31;;;9.26;43.50
34237;BME280;20501;45.956;13.632;2023-04-06T03:50:50;100930.13;;;10.76;41.68
34237;BME280;20501;45.956;13.632;2023-04-06T03:53:16;100923.72;;;7.46;48.32
34237;BME280;20501;45.956;13.632;2023-04-06T03:55:41;100925.94;;;9.19;45.04
34237;BME280;20501;45.956;13.632;2023-04-06T03:58:07;100931.09;;;9.88;44.06
34237;BME280;20501;45.956;13.632;2023-04-06T04:00:32;100933.13;;;11.04;41.58
34237;BME280;20501;45.956;13.632;2023-04-06T04:02:58;100937.72;;;11.44;39.93
34237;BME280;20501;45.956;13.632;2023-04-06T04:05:23;100930.78;;;11.61;39.87
34237;BME280;20501;45.956;13.632;2023-04-06T04:07:51;100932.63;;;11.60;39.68
34237;BME280;20501;45.956;13.632;2023-04-06T04:10:17;100933.59;;;7.82;46.51
34237;BME280;20501;45.956;13.632;2023-04-06T04:12:42;100933.09;;;10.19;43.07
34237;BME280;20501;45.956;13.632;2023-04-06T04:15:08;100940.00;;;11.18;40.52
34237;BME280;20501;45.956;13.632;2023-04-06T04:17:33;100939.69;;;9.94;38.99
34237;BME280;20501;45.956;13.632;2023-04-06T04:19:59;100941.06;;;11.26;40.65
34237;BME280;20501;45.956;13.632;2023-04-06T04:22:24;100936.91;;;11.53;39.97
34237;BME280;20501;45.956;13.632;2023-04-06T04:24:50;100939.00;;;10.13;39.45
34237;BME280;20501;45.956;13.632;2023-04-06T04:27:15;100938.47;;;8.26;43.00
34237;BME280;20501;45.956;13.632;2023-04-06T04:29:41;100945.94;;;9.83;43.44
34237;BME280;20501;45.956;13.632;2023-04-06T04:32:06;100950.38;;;11.12;40.96
34237;BME280;20501;45.956;13.632;2023-04-06T04:34:31;100951.63;;;11.08;41.07
34237;BME280;20501;45.956;13.632;2023-04-06T04:36:57;100946.16;;;11.20;40.77
34237;BME280;20501;45.956;13.632;2023-04-06T04:39:23;100951.91;;;7.40;43.60
34237;BME280;20501;45.956;13.632;2023-04-06T04:41:48;100957.66;;;6.84;49.07
34237;BME280;20501;45.956;13.632;2023-04-06T04:44:14;100956.38;;;9.99;43.69
34237;BME280;20501;45.956;13.632;2023-04-06T04:46:40;100949.88;;;10.97;41.48
34237;BME280;20501;45.956;13.632;2023-04-06T04:49:06;100961.44;;;10.99;41.10
34237;BME280;20501;45.956;13.632;2023-04-06T04:51:32;100959.41;;;9.94;42.02
34237;BME280;20501;45.956;13.632;2023-04-06T04:53:57;100961.44;;;11.30;40.67
34237;BME280;20501;45.956;13.632;2023-04-06T04:56:23;100963.28;;;11.30;40.60
34237;BME280;20501;45.956;13.632;2023-04-06T04:58:48;100964.94;;;11.52;40.30
34237;BME280;20501;45.956;13.632;2023-04-06T05:01:14;100964.31;;;9.34;45.16
34237;BME280;20501;45.956;13.632;2023-04-06T05:03:39;100968.25;;;11.04;41.55
34237;BME280;20501;45.956;13.632;2023-04-06T05:06:05;100959.84;;;10.76;40.51
34237;BME280;20501;45.956;13.632;2023-04-06T05:08:31;100962.13;;;10.38;42.75
34237;BME280;20501;45.956;13.632;2023-04-06T05:10:57;100962.09;;;6.44;47.74
34237;BME280;20501;45.956;13.632;2023-04-06T05:13:22;100974.66;;;5.18;50.69
34237;BME280;20501;45.956;13.632;2023-04-06T05:15:48;100969.84;;;6.22;49.79
34237;BME280;20501;45.956;13.632;2023-04-06T05:18:13;100974.94;;;5.28;49.84
34237;BME280;20501;45.956;13.632;2023-04-06T05:20:39;100965.06;;;8.66;47.65
34237;BME280;20501;45.956;13.632;2023-04-06T05:23:05;100965.03;;;10.46;42.59
34237;BME280;20501;45.956;13.632;2023-04-06T05:25:31;100970.47;;;11.20;41.04
34237;BME280;20501;45.956;13.632;2023-04-06T05:27:57;100981.59;;;11.48;40.59
34237;BME280;20501;45.956;13.632;2023-04-06T05:30:22;100976.59;;;11.53;40.44
34237;BME280;20501;45.956;13.632;2023-04-06T05:32:48;100967.81;;;9.00;40.88
34237;BME280;20501;45.956;13.632;2023-04-06T05:35:14;100969.69;;;7.67;47.11
34237;BME280;20501;45.956;13.632;2023-04-06T05:37:39;100968.03;;;10.64;42.55
34237;BME280;20501;45.956;13.632;2023-04-06T05:40:05;100975.47;;;11.24;41.33
34237;BME280;20501;45.956;13.632;2023-04-06T05:42:38;100973.25;;;11.29;40.71
34237;BME280;20501;45.956;13.632;2023-04-06T05:45:07;100969.53;;;11.61;40.05
34237;BME280;20501;45.956;13.632;2023-04-06T05:47:33;100974.63;;;11.24;38.23
34237;BME280;20501;45.956;13.632;2023-04-06T05:49:59;100970.25;;;10.38;42.23
34237;BME280;20501;45.956;13.632;2023-04-06T05:52:24;100975.59;;;11.44;40.58
34237;BME280;20501;45.956;13.632;2023-04-06T05:54:50;100969.16;;;8.23;41.53
34237;BME280;20501;45.956;13.632;2023-04-06T05:57:15;100972.63;;;10.09;43.75
34237;BME280;20501;45.956;13.632;2023-04-06T05:59:42;100980.72;;;11.16;41.23
34237;BME280;20501;45.956;13.632;2023-04-06T06:02:07;100975.75;;;10.69;39.22
34237;BME280;20501;45.956;13.632;2023-04-06T06:04:32;100979.53;;;8.76;40.56
34237;BME280;20501;45.956;13.632;2023-04-06T06:06:58;100979.59;;;8.28;47.33
34237;BME280;20501;45.956;13.632;2023-04-06T06:09:23;100981.81;;;9.05;45.55
34237;BME280;20501;45.956;13.632;2023-04-06T06:11:49;100981.06;;;9.71;40.69
34237;BME280;20501;45.956;13.632;2023-04-06T06:14:14;100974.53;;;10.83;42.00
34237;BME280;20501;45.956;13.632;2023-04-06T06:16:40;100974.06;;;8.54;43.90
34237;BME280;20501;45.956;13.632;2023-04-06T06:19:06;100970.34;;;8.43;40.49
34237;BME280;20501;45.956;13.632;2023-04-06T06:21:31;100974.34;;;9.20;45.23
34237;BME280;20501;45.956;13.632;2023-04-06T06:23:57;100974.25;;;7.90;44.64
34237;BME280;20501;45.956;13.632;2023-04-06T06:26:22;100978.88;;;7.51;46.15
34237;BME280;20501;45.956;13.632;2023-04-06T06:28:48;100970.03;;;7.62;40.88
34237;BME280;20501;45.956;13.632;2023-04-06T06:31:13;100971.16;;;8.32;44.59
34237;BME280;20501;45.956;13.632;2023-04-06T06:33:39;100972.25;;;9.69;43.90
34237;BME280;20501;45.956;13.632;2023-04-06T06:36:05;100973.16;;;10.35;42.54
34237;BME280;20501;45.956;13.632;2023-04-06T06:38:30;100964.06;;;10.15;41.03
34237;BME280;20501;45.956;13.632;2023-04-06T06:40:56;100959.53;;;10.04;38.16
34237;BME280;20501;45.956;13.632;2023-04-06T06:43:21;100964.41;;;9.55;39.96
34237;BME280;20501;45.956;13.632;2023-04-06T06:45:47;100957.03;;;8.89;38.33
34237;BME280;20501;45.956;13.632;2023-04-06T06:48:12;100962.31;;;9.02;40.10
34237;BME280;20501;45.956;13.632;2023-04-06T06:50:38;100961.75;;;10.43;41.98
34237;BME280;20501;45.956;13.632;2023-04-06T06:53:03;100960.16;;;10.61;41.01
34237;BME280;20501;45.956;13.632;2023-04-06T06:55:29;100962.81;;;8.48;40.97
34237;BME280;20501;45.956;13.632;2023-04-06T06:57:54;100962.00;;;8.35;39.18
34237;BME280;20501;45.956;13.632;2023-04-06T07:00:20;100962.53;;;9.67;38.75
34237;BME280;20501;45.956;13.632;2023-04-06T07:02:47;100956.94;;;10.35;42.17
34237;BME280;20501;45.956;13.632;2023-04-06T07:05:12;100959.50;;;10.15;38.81
34237;BME280;20501;45.956;13.632;2023-04-06T07:07:38;100957.66;;;10.69;39.95
34237;BME280;20501;45.956;13.632;2023-04-06T07:10:04;100963.41;;;10.55;39.78
34237;BME280;20501;45.956;13.632;2023-04-06T07:12:29;100964.78;;;11.44;39.08
34237;BME280;20501;45.956;13.632;2023-04-06T07:14:55;100965.63;;;10.92;39.66
34237;BME280;20501;45.956;13.632;2023-04-06T07:17:20;100962.19;;;11.11;38.84
34237;BME280;20501;45.956;13.632;2023-04-06T07:19:46;100966.78;;;11.52;38.29
34237;BME280;20501;45.956;13.632;2023-04-06T07:22:12;100960.84;;;8.97;33.36
34237;BME280;20501;45.956;13.632;2023-04-06T07:24:37;100955.75;;;8.10;35.10
34237;BME280;20501;45.956;13.632;2023-04-06T07:27:03;100963.72;;;8.36;35.16
34237;BME280;20501;45.956;13.632;2023-04-06T07:29:29;100955.09;;;8.19;35.06
34237;BME280;20501;45.956;13.632;2023-04-06T07:31:55;100962.28;;;8.79;36.84
34237;BME280;20501;45.956;13.632;2023-04-06T07:34:21;100952.78;;;8.50;36.01
34237;BME280;20501;45.956;13.632;2023-04-06T07:36:46;100958.53;;;9.16;37.56
34237;BME280;20501;45.956;13.632;2023-04-06T07:39:12;100958.50;;;8.81;35.39
34237;BME280;20501;45.956;13.632;2023-04-06T07:41:37;100957.50;;;9.73;38.69
34237;BME280;20501;45.956;13.632;2023-04-06T07:44:03;100951.28;;;10.05;33.65
34237;BME280;20501;45.956;13.632;2023-04-06T07:46:29;100954.38;;;8.29;34.98
34237;BME280;20501;45.956;13.632;2023-04-06T07:48:55;100952.56;;;7.68;35.56
34237;BME280;20501;45.956;13.632;2023-04-06T07:51:21;100952.22;;;8.81;39.24
34237;BME280;20501;45.956;13.632;2023-04-06T07:53:46;100957.25;;;9.88;33.86
34237;BME280;20501;45.956;13.632;2023-04-06T07:56:12;100956.81;;;9.49;34.42
34237;BME280;20501;45.956;13.632;2023-04-06T07:58:37;100953.88;;;9.29;39.77
34237;BME280;20501;45.956;13.632;2023-04-06T08:01:03;100950.66;;;8.90;33.97
34237;BME280;20501;45.956;13.632;2023-04-06T08:03:28;100949.50;;;8.58;34.47
34237;BME280;20501;45.956;13.632;2023-04-06T08:05:54;100945.44;;;9.11;39.23
34237;BME280;20501;45.956;13.632;2023-04-06T08:08:20;100940.50;;;9.27;38.06
34237;BME280;20501;45.956;13.632;2023-04-06T08:10:47;100945.94;;;10.80;33.74
34237;BME280;20501;45.956;13.632;2023-04-06T08:13:13;100940.59;;;10.48;32.64
34237;BME280;20501;45.956;13.632;2023-04-06T08:15:39;100936.97;;;9.38;33.09
34237;BME280;20501;45.956;13.632;2023-04-06T08:18:04;100939.16;;;8.99;34.76
34237;BME280;20501;45.956;13.632;2023-04-06T08:20:30;100929.84;;;9.60;38.07
34237;BME280;20501;45.956;13.632;2023-04-06T08:22:55;100932.00;;;8.64;33.74
34237;BME280;20501;45.956;13.632;2023-04-06T08:25:21;100934.09;;;8.36;34.36
34237;BME280;20501;45.956;13.632;2023-04-06T08:27:46;100937.59;;;9.42;35.48
34237;BME280;20501;45.956;13.632;2023-04-06T08:30:12;100927.53;;;9.10;33.86
34237;BME280;20501;45.956;13.632;2023-04-06T08:32:38;100933.16;;;9.29;33.50
34237;BME280;20501;45.956;13.632;2023-04-06T08:35:03;100934.59;;;8.77;33.66
34237;BME280;20501;45.956;13.632;2023-04-06T08:37:29;100925.16;;;8.71;34.24
34237;BME280;20501;45.956;13.632;2023-04-06T08:39:55;100928.53;;;9.20;34.67
34237;BME280;20501;45.956;13.632;2023-04-06T08:42:21;100933.75;;;10.44;37.39
34237;BME280;20501;45.956;13.632;2023-04-06T08:44:50;100929.78;;;10.15;38.38
34237;BME280;20501;45.956;13.632;2023-04-06T08:47:19;100925.47;;;9.13;37.96
34237;BME280;20501;45.956;13.632;2023-04-06T08:49:44;100918.31;;;8.78;34.96
34237;BME280;20501;45.956;13.632;2023-04-06T08:52:11;100914.88;;;10.32;36.22
34237;BME280;20501;45.956;13.632;2023-04-06T08:54:38;100910.97;;;10.79;35.57
34237;BME280;20501;45.956;13.632;2023-04-06T08:57:04;100914.03;;;10.95;32.98
34237;BME280;20501;45.956;13.632;2023-04-06T08:59:31;100908.34;;;9.70;33.14
34237;BME280;20501;45.956;13.632;2023-04-06T09:01:57;100908.28;;;9.37;33.51
34237;BME280;20501;45.956;13.632;2023-04-06T09:04:24;100903.75;;;9.26;33.72
34237;BME280;20501;45.956;13.632;2023-04-06T09:06:49;100898.09;;;9.52;35.44
34237;BME280;20501;45.956;13.632;2023-04-06T09:09:15;100900.00;;;9.73;33.42
34237;BME280;20501;45.956;13.632;2023-04-06T09:11:47;100889.41;;;9.37;33.33
34237;BME280;20501;45.956;13.632;2023-04-06T09:14:14;100891.50;;;9.89;33.82
34237;BME280;20501;45.956;13.632;2023-04-06T09:16:44;100894.41;;;10.51;36.94
34237;BME280;20501;45.956;13.632;2023-04-06T09:19:11;100889.41;;;11.29;36.34
34237;BME280;20501;45.956;13.632;2023-04-06T09:21:37;100890.63;;;11.15;33.10
34237;BME280;20501;45.956;13.632;2023-04-06T09:24:06;100890.19;;;10.79;32.66
34237;BME280;20501;45.956;13.632;2023-04-06T09:26:32;100892.38;;;11.26;35.57
34237;BME280;20501;45.956;13.632;2023-04-06T09:29:08;100889.19;;;10.80;32.17
34237;BME280;20501;45.956;13.632;2023-04-06T09:31:34;100887.00;;;11.36;36.91
34237;BME280;20501;45.956;13.632;2023-04-06T09:34:01;100876.63;;;11.01;33.24
34237;BME280;20501;45.956;13.632;2023-04-06T09:36:30;100876.44;;;10.92;36.37
34237;BME280;20501;45.956;13.632;2023-04-06T09:39:01;100879.38;;;10.04;35.39
34237;BME280;20501;45.956;13.632;2023-04-06T09:41:32;100879.81;;;10.21;32.52
34237;BME280;20501;45.956;13.632;2023-04-06T09:44:07;100878.41;;;11.21;35.98
34237;BME280;20501;45.956;13.632;2023-04-06T09:46:40;100869.00;;;11.76;36.52
34237;BME280;20501;45.956;13.632;2023-04-06T09:49:07;100870.69;;;11.07;32.42
34237;BME280;20501;45.956;13.632;2023-04-06T09:54:04;100864.88;;;11.82;32.28
34237;BME280;20501;45.956;13.632;2023-04-06T09:56:33;100858.16;;;11.86;34.87
34237;BME280;20501;45.956;13.632;2023-04-06T09:59:12;100856.63;;;10.82;31.76
34237;BME280;20501;45.956;13.632;2023-04-06T10:01:39;100848.16;;;10.65;33.14
34237;BME280;20501;45.956;13.632;2023-04-06T10:06:32;100842.38;;;10.80;35.32
34237;BME280;20501;45.956;13.632;2023-04-06T10:09:01;100840.16;;;11.26;33.98
34237;BME280;20501;45.956;13.632;2023-04-06T10:11:27;100831.44;;;10.81;32.00
34237;BME280;20501;45.956;13.632;2023-04-06T10:13:55;100826.03;;;10.81;32.11
34237;BME280;20501;45.956;13.632;2023-04-06T10:16:21;100827.63;;;11.25;32.91
34237;BME280;20501;45.956;13.632;2023-04-06T10:18:52;100827.50;;;11.36;35.37
34237;BME280;20501;45.956;13.632;2023-04-06T10:21:22;100822.97;;;11.46;32.36
34237;BME280;20501;45.956;13.632;2023-04-06T10:23:51;100814.16;;;11.54;32.59
34237;BME280;20501;45.956;13.632;2023-04-06T10:26:19;100815.72;;;11.57;32.89
34237;BME280;20501;45.956;13.632;2023-04-06T10:28:46;100815.13;;;11.34;32.66
34237;BME280;20501;45.956;13.632;2023-04-06T10:31:12;100812.28;;;11.55;33.31
34237;BME280;20501;45.956;13.632;2023-04-06T10:33:38;100808.94;;;11.22;33.00
34237;BME280;20501;45.956;13.632;2023-04-06T10:38:39;100802.44;;;11.34;34.51
34237;BME280;20501;45.956;13.632;2023-04-06T10:41:06;100799.56;;;11.36;32.54
34237;BME280;20501;45.956;13.632;2023-04-06T10:43:37;100798.47;;;11.58;33.56
34237;BME280;20501;45.956;13.632;2023-04-06T10:46:04;100805.59;;;11.69;35.61
34237;BME280;20501;45.956;13.632;2023-04-06T10:48:36;100798.72;;;11.45;35.46
34237;BME280;20501;45.956;13.632;2023-04-06T10:51:08;100796.75;;;11.47;32.57
34237;BME280;20501;45.956;13.632;2023-04-06T10:53:34;100791.06;;;11.70;34.07
34237;BME280;20501;45.956;13.632;2023-04-06T10:56:00;100796.06;;;12.04;33.53
34237;BME280;20501;45.956;13.632;2023-04-06T10:58:26;100785.34;;;12.22;34.53
34237;BME280;20501;45.956;13.632;2023-04-06T11:00:53;100783.66;;;12.21;33.77
34237;BME280;20501;45.956;13.632;2023-04-06T11:03:19;100781.38;;;11.97;32.36
34237;BME280;20501;45.956;13.632;2023-04-06T11:05:49;100778.94;;;12.13;33.01
34237;BME280;20501;45.956;13.632;2023-04-06T11:08:27;100766.41;;;11.92;33.42
34237;BME280;20501;45.956;13.632;2023-04-06T11:11:13;100764.88;;;11.60;33.38
34237;BME280;20501;45.956;13.632;2023-04-06T11:16:16;100764.56;;;11.83;32.54
34237;BME280;20501;45.956;13.632;2023-04-06T11:21:14;100764.41;;;11.85;33.14
34237;BME280;20501;45.956;13.632;2023-04-06T11:23:39;100750.34;;;11.61;32.14
34237;BME280;20501;45.956;13.632;2023-04-06T11:26:10;100753.19;;;11.99;33.58
34237;BME280;20501;45.956;13.632;2023-04-06T11:28:36;100749.44;;;11.90;32.88
34237;BME280;20501;45.956;13.632;2023-04-06T11:31:01;100739.19;;;11.94;33.81
34237;BME280;20501;45.956;13.632;2023-04-06T11:33:35;100742.50;;;11.68;33.41
34237;BME280;20501;45.956;13.632;2023-04-06T11:36:01;100736.09;;;11.59;32.94
34237;BME280;20501;45.956;13.632;2023-04-06T11:38:26;100731.28;;;11.53;33.85
34237;BME280;20501;45.956;13.632;2023-04-06T11:40:53;100726.13;;;11.70;33.64
34237;BME280;20501;45.956;13.632;2023-04-06T11:43:28;100727.84;;;11.81;32.94
34237;BME280;20501;45.956;13.632;2023-04-06T11:46:00;100717.81;;;12.11;33.88
34237;BME280;20501;45.956;13.632;2023-04-06T11:48:27;100728.31;;;12.33;32.96
34237;BME280;20501;45.956;13.632;2023-04-06T11:50:59;100715.69;;;11.85;33.72
34237;BME280;20501;45.956;13.632;2023-04-06T11:53:29;100720.09;;;12.05;33.86
34237;BME280;20501;45.956;13.632;2023-04-06T11:55:55;100720.53;;;12.01;34.29
34237;BME280;20501;45.956;13.632;2023-04-06T11:58:20;100720.19;;;12.23;34.12
34237;BME280;20501;45.956;13.632;2023-04-06T12:00:46;100721.44;;;12.39;34.01
34237;BME280;20501;45.956;13.632;2023-04-06T12:03:12;100721.19;;;12.22;32.97
34237;BME280;20501;45.956;13.632;2023-04-06T12:05:38;100719.00;;;12.46;33.85
34237;BME280;20501;45.956;13.632;2023-04-06T12:08:03;100728.19;;;12.63;33.30
34237;BME280;20501;45.956;13.632;2023-04-06T12:10:29;100712.28;;;12.02;33.29
34237;BME280;20501;45.956;13.632;2023-04-06T12:12:54;100707.56;;;11.95;33.38
34237;BME280;20501;45.956;13.632;2023-04-06T12:15:20;100712.34;;;12.20;34.22
34237;BME280;20501;45.956;13.632;2023-04-06T12:17:45;100705.91;;;12.31;33.50
34237;BME280;20501;45.956;13.632;2023-04-06T12:20:11;100702.78;;;12.26;32.85
34237;BME280;20501;45.956;13.632;2023-04-06T12:22:36;100696.63;;;12.34;33.68
34237;BME280;20501;45.956;13.632;2023-04-06T12:25:02;100700.75;;;12.00;33.84
34237;BME280;20501;45.956;13.632;2023-04-06T12:27:28;100688.81;;;11.64;33.36
34237;BME280;20501;45.956;13.632;2023-04-06T12:29:53;100696.75;;;11.95;35.43
34237;BME280;20501;45.956;13.632;2023-04-06T12:32:19;100686.72;;;12.52;35.23
34237;BME280;20501;45.956;13.632;2023-04-06T12:34:44;100693.00;;;12.53;34.16
34237;BME280;20501;45.956;13.632;2023-04-06T12:37:10;100689.13;;;12.56;35.44
34237;BME280;20501;45.956;13.632;2023-04-06T12:39:35;100689.13;;;12.56;33.40
34237;BME280;20501;45.956;13.632;2023-04-06T12:42:01;100680.13;;;12.27;34.14
34237;BME280;20501;45.956;13.632;2023-04-06T12:44:27;100678.72;;;12.23;33.17
34237;BME280;20501;45.956;13.632;2023-04-06T12:46:53;100672.28;;;12.62;32.74
34237;BME280;20501;45.956;13.632;2023-04-06T12:49:19;100668.91;;;12.50;31.77